EW4337 Weather Reports


Display with metric or nautical units.
time (UTC)temp
F
wind
direction
speed
MPH
gust
MPH
rain 1hr
in
rain 24hr
in
rain mn
in
humidity
%
barometer
mb
20170623065705 64 257 6.0 13.0 0.00 0.02 0.00 82 1012.9
20170623064705 64 251 10.0 16.0 0.00 0.02 0.00 82 1012.8
20170623063705 64 276 6.0 14.0 0.00 0.02 0.00 83 1012.6
20170623062705 64 270 7.0 15.0 0.00 0.02 0.00 83 1012.7
20170623061705 64 267 9.0 13.0 0.00 0.02 0.00 83 1012.6
20170623060706 63 280 5.0 10.0 0.00 0.02 0.00 85 1012.5
20170623055705 63 246 6.0 12.0 0.00 0.02 0.00 85 1012.4
20170623054706 62 322 5.0 12.0 0.00 0.02 0.00 86 1012.2
20170623053705 62 248 4.0 9.0 0.00 0.02 0.00 86 1012.3
20170623052704 62 276 5.0 12.0 0.00 0.02 0.00 86 1012.3
20170623051705 62 270 7.0 13.0 0.00 0.02 0.00 86 1012.1
20170623050705 62 287 5.0 12.0 0.00 0.02 0.00 87 1011.9
20170623045705 61 279 7.0 13.0 0.00 0.02 0.00 87 1011.9
20170623044704 61 280 6.0 15.0 0.00 0.02 0.00 87 1011.9
20170623043705 61 254 8.0 20.0 0.00 0.02 0.00 88 1011.8
20170623042705 61 287 7.0 16.0 0.00 0.02 0.00 88 1011.8
20170623041705 60 270 7.0 13.0 0.00 0.02 0.00 88 1011.7
20170623040704 60 273 7.0 14.0 0.00 0.02 0.00 89 1011.7
20170623035705 60 287 7.0 13.0 0.00 0.02 0.00 89 1011.5
20170623034705 60 241 6.0 12.0 0.00 0.02 0.00 89 1011.5
20170623033705 60 261 7.0 12.0 0.00 0.02 0.00 89 1011.4
20170623032705 60 260 5.0 17.0 0.00 0.02 0.00 88 1011.4
20170623031705 60 258 7.0 13.0 0.00 0.02 0.00 88 1011.3
20170623030705 60 270 8.0 14.0 0.00 0.02 0.00 88 1011.2
20170623025705 61 244 6.0 12.0 0.00 0.02 0.00 88 1011.1
20170623024705 61 248 7.0 13.0 0.00 0.02 0.00 88 1011.2
20170623023705 61 267 9.0 15.0 0.00 0.02 0.00 88 1011.2
20170623022706 61 300 6.0 14.0 0.00 0.02 0.00 87 1011.0
20170623021705 61 272 9.0 14.0 0.00 0.02 0.00 87 1010.9
20170623020704 61 274 8.0 14.0 0.00 0.02 0.00 87 1011.0
20170623015705 61 274 8.0 15.0 0.00 0.02 0.00 86 1011.0
20170623014705 62 282 9.0 18.0 0.00 0.02 0.00 87 1011.1
20170623013705 62 294 11.0 17.0 0.00 0.02 0.00 87 1011.1
20170623012705 63 271 6.0 13.0 0.00 0.02 0.00 88 1011.0
20170623011705 63 253 8.0 12.0 0.00 0.02 0.00 88 1011.0
20170623010704 63 243 4.0 12.0 0.00 0.02 0.00 88 1011.0
20170623005705 63 280 7.0 12.0 0.00 0.02 0.00 88 1011.1
20170623004705 63 262 5.0 12.0 0.00 0.02 0.00 88 1011.1
20170623003705 63 280 5.0 12.0 0.00 0.02 0.00 88 1010.9
20170623002705 63 288 6.0 15.0 0.00 0.02 0.00 88 1010.8
20170623001705 63 280 7.0 17.0 0.00 0.02 0.00 88 1010.7
20170623000705 63 241 4.0 17.0 0.00 0.02 0.00 88 1010.7
20170622235706 63 257 7.0 13.0 0.00 0.02 0.00 88 1010.5
20170622234705 63 252 5.0 12.0 0.00 0.02 0.00 88 1010.5
20170622233705 63 284 9.0 14.0 0.00 0.02 0.00 88 1010.4
20170622232705 63 287 9.0 16.0 0.00 0.02 0.00 88 1010.4
20170622231705 63 245 8.0 15.0 0.00 0.02 0.00 88 1010.4
20170622230705 63 276 11.0 21.0 0.00 0.02 0.00 88 1010.3
20170622225705 63 295 11.0 20.0 0.00 0.02 0.00 88 1010.3
20170622224705 63 271 7.0 18.0 0.00 0.02 0.00 89 1010.0
20170622223705 63 277 9.0 16.0 0.00 0.02 0.00 89 1010.0
20170622222704 63 269 12.0 23.0 0.00 0.02 0.00 88 1009.9
20170622221705 63 272 12.0 20.0 0.00 0.02 0.00 89 1009.9
20170622220705 64 233 8.0 20.0 0.00 0.02 0.00 88 1009.8
20170622215705 64 271 12.0 20.0 0.00 0.02 0.02 88 1009.7
20170622214705 64 276 9.0 21.0 0.00 0.02 0.02 88 1009.4
20170622213705 64 281 14.0 29.0 0.00 0.02 0.02 88 1009.2
20170622212706 65 266 9.0 18.0 0.00 0.02 0.02 88 1009.0
20170622211705 65 245 14.0 25.0 0.00 0.02 0.02 88 1008.8
20170622210705 65 256 13.0 21.0 0.00 0.02 0.02 88 1008.6
20170622205705 65 253 7.0 17.0 0.00 0.02 0.02 88 1008.3
20170622204705 65 253 9.0 20.0 0.00 0.02 0.02 88 1008.3
20170622203705 65 239 7.0 20.0 0.00 0.02 0.02 87 1008.1
20170622202705 65 252 10.0 18.0 0.00 0.02 0.02 85 1008.1
20170622201705 66 249 10.0 23.0 0.00 0.02 0.02 83 1008.1
20170622200705 66 210 9.0 18.0 0.00 0.02 0.02 82 1008.0
20170622195705 66 263 6.0 17.0 0.00 0.02 0.02 82 1007.8
20170622194706 66 238 10.0 20.0 0.00 0.02 0.02 82 1007.7
20170622193705 66 262 11.0 24.0 0.00 0.02 0.02 83 1007.8
20170622192705 67 242 13.0 22.0 0.00 0.02 0.02 84 1007.6
20170622191705 67 253 6.0 16.0 0.00 0.02 0.02 84 1007.6
20170622190705 67 251 8.0 18.0 0.00 0.02 0.02 84 1007.5
20170622185705 67 263 11.0 24.0 0.00 0.02 0.02 85 1007.4
20170622184705 67 264 9.0 16.0 0.00 0.02 0.02 86 1007.5
20170622183706 67 263 7.0 17.0 0.00 0.02 0.02 86 1007.7
20170622182705 67 259 9.0 18.0 0.00 0.02 0.02 86 1007.6
20170622181705 68 254 7.0 16.0 0.00 0.02 0.02 85 1007.6
20170622180705 68 272 13.0 20.0 0.00 0.02 0.02 84 1007.7
20170622175705 69 253 9.0 21.0 0.00 0.02 0.02 83 1007.5
20170622174705 69 264 9.0 18.0 0.00 0.02 0.02 83 1007.5
20170622173705 69 274 7.0 21.0 0.00 0.02 0.02 83 1007.5
20170622172705 70 255 10.0 18.0 0.00 0.02 0.02 83 1007.6
20170622171705 69 246 8.0 20.0 0.00 0.02 0.02 83 1007.7
20170622170705 69 256 9.0 16.0 0.00 0.02 0.02 83 1007.8
20170622165705 70 245 10.0 17.0 0.00 0.02 0.02 82 1007.8
20170622164705 70 247 7.0 18.0 0.00 0.02 0.02 81 1007.9
20170622163704 71 259 6.0 17.0 0.01 0.02 0.02 80 1006.9
20170622162705 71 276 7.0 13.0 0.01 0.02 0.02 81 1006.8
20170622161705 71 266 5.0 9.0 0.02 0.02 0.02 80 1006.9
20170622160705 72 222 6.0 21.0 0.02 0.02 0.02 79 1008.0
20170622155705 73 212 7.0 26.0 0.02 0.02 0.02 77 1007.3
20170622154706 74 251 3.0 6.0 0.02 0.02 0.02 79 1006.7
20170622153705 75 116 2.0 3.0 0.01 0.01 0.01 78 1007.0
20170622152705 76 213 2.0 6.0 0.01 0.01 0.01 75 1007.9
20170622151705 76 288 2.0 10.0 0.00 0.00 0.00 71 1007.4
20170622150705 77 295 5.0 9.0 0.00 0.00 0.00 68 1007.3
20170622145705 79 293 6.0 13.0 0.00 0.00 0.00 64 1007.6
20170622144705 80 245 8.0 21.0 0.00 0.00 0.00 61 1008.2
20170622143705 81 258 10.0 22.0 0.00 0.00 0.00 59 1008.7
20170622142705 82 250 10.0 20.0 0.00 0.00 0.00 55 1008.1
20170622141705 83 250 9.0 18.0 0.00 0.00 0.00 53 1007.9
20170622140705 83 232 10.0 16.0 0.00 0.00 0.00 52 1007.7
20170622135705 83 243 11.0 20.0 0.00 0.00 0.00 53 1007.8
20170622134706 83 234 11.0 22.0 0.00 0.00 0.00 51 1007.9
20170622133705 83 230 8.0 16.0 0.00 0.00 0.00 52 1008.1
20170622132705 85 180 7.0 18.0 0.00 0.00 0.00 51 1008.0
20170622131705 85 254 12.0 20.0 0.00 0.00 0.00 50 1008.0
20170622130705 86 258 11.0 20.0 0.00 0.00 0.00 49 1008.0
20170622125705 86 255 8.0 17.0 0.00 0.00 0.00 49 1007.8
20170622124705 86 235 8.0 20.0 0.00 0.00 0.00 48 1007.7
20170622123706 86 247 9.0 18.0 0.00 0.00 0.00 50 1007.9
20170622122705 85 190 7.0 16.0 0.00 0.00 0.00 53 1007.9
20170622121705 85 228 10.0 20.0 0.00 0.00 0.00 52 1008.0
20170622120705 85 244 10.0 20.0 0.00 0.00 0.00 52 1008.1
20170622115705 86 243 5.0 13.0 0.00 0.00 0.00 54 1008.0
20170622114706 86 262 9.0 20.0 0.00 0.00 0.00 53 1008.1
20170622113705 85 236 9.0 18.0 0.00 0.00 0.00 55 1008.2
20170622112706 85 213 9.0 18.0 0.00 0.00 0.00 56 1008.1
20170622111705 85 241 9.0 17.0 0.00 0.00 0.00 57 1008.2
20170622110705 84 240 7.0 17.0 0.00 0.00 0.00 58 1008.3
20170622105705 84 277 9.0 20.0 0.00 0.00 0.00 58 1008.5
20170622104705 83 278 13.0 28.0 0.00 0.00 0.00 57 1008.6
20170622103705 85 268 12.0 20.0 0.00 0.00 0.00 55 1008.6
20170622102704 85 252 9.0 17.0 0.00 0.00 0.00 57 1008.6
20170622101704 85 238 7.0 17.0 0.00 0.00 0.00 58 1008.7
20170622100706 84 239 11.0 18.0 0.00 0.00 0.00 58 1008.8
20170622095705 83 245 7.0 17.0 0.00 0.00 0.00 61 1008.9
20170622094705 83 245 11.0 18.0 0.00 0.00 0.00 59 1008.9
20170622093705 83 245 8.0 18.0 0.00 0.00 0.00 60 1008.8
20170622092705 83 251 10.0 18.0 0.00 0.00 0.00 59 1008.9
20170622091705 84 244 9.0 16.0 0.00 0.00 0.00 57 1008.9
20170622090705 84 250 9.0 15.0 0.00 0.00 0.00 57 1009.1
20170622085705 84 258 8.0 15.0 0.00 0.00 0.00 57 1009.0
20170622084705 83 246 7.0 18.0 0.00 0.00 0.00 57 1009.0
20170622083704 83 247 6.0 12.0 0.00 0.00 0.00 58 1008.7
20170622082705 82 267 7.0 17.0 0.00 0.00 0.00 59 1008.7
20170622081705 82 236 10.0 16.0 0.00 0.00 0.00 58 1008.7
20170622080705 81 223 7.0 17.0 0.00 0.00 0.00 59 1008.8
20170622075705 81 242 6.0 14.0 0.00 0.00 0.00 58 1008.8
20170622074705 80 232 10.0 16.0 0.00 0.00 0.00 59 1008.8
20170622073707 80 254 7.0 14.0 0.00 0.00 0.00 61 1008.7
20170622072705 79 232 5.0 9.0 0.00 0.00 0.00 63 1008.7
20170622071705 77 179 2.0 9.0 0.00 0.00 0.00 64 1008.4
20170622070705 76 191 4.0 9.0 0.00 0.00 0.00 66 1008.5